createdAt,value
2022-08-02T00:00:57.597Z,100879.13
2022-08-02T00:03:25.244Z,100872.00
2022-08-02T00:05:54.011Z,100868.88
2022-08-02T00:08:23.463Z,100879.28
2022-08-02T00:10:51.154Z,100869.59
2022-08-02T00:13:18.713Z,100863.59
2022-08-02T00:15:46.209Z,100864.31
2022-08-02T00:18:13.731Z,100862.44
2022-08-02T00:20:41.266Z,100865.56
2022-08-02T00:23:08.792Z,100855.91
2022-08-02T00:25:55.130Z,100869.22
2022-08-02T00:28:27.401Z,100874.28
2022-08-02T00:30:55.662Z,100871.84
2022-08-02T00:34:05.138Z,100876.47
2022-08-02T00:36:10.793Z,100874.78
2022-08-02T00:38:38.507Z,100881.00
2022-08-02T00:41:12.730Z,100893.59
2022-08-02T00:43:40.442Z,100896.66
2022-08-02T00:46:07.942Z,100897.47
2022-08-02T00:48:35.552Z,100894.41
2022-08-02T00:51:09.096Z,100892.06
2022-08-02T00:53:36.633Z,100899.09
2022-08-02T00:56:05.007Z,100892.53
2022-08-02T00:58:33.846Z,100887.50
2022-08-02T01:01:02.104Z,100889.44
2022-08-02T01:03:29.734Z,100892.59
2022-08-02T01:06:10.917Z,100896.22
2022-08-02T01:08:39.309Z,100891.06
2022-08-02T01:11:06.830Z,100889.03
2022-08-02T01:13:35.712Z,100894.44
2022-08-02T01:16:09.529Z,100893.75
2022-08-02T01:18:40.157Z,100890.47
2022-08-02T01:21:21.719Z,100889.44
2022-08-02T01:23:58.668Z,100890.72
2022-08-02T01:26:36.108Z,100879.81
2022-08-02T01:29:08.595Z,100877.94
2022-08-02T01:31:39.863Z,100872.19
2022-08-02T01:34:14.590Z,100866.22
2022-08-02T01:36:44.258Z,100873.84
2022-08-02T01:39:26.923Z,100867.16
2022-08-02T01:42:01.030Z,100869.63
2022-08-02T01:44:32.944Z,100875.25
2022-08-02T01:47:04.542Z,100871.84
2022-08-02T01:49:33.701Z,100873.25
2022-08-02T01:52:20.467Z,100867.72
2022-08-02T01:54:50.649Z,100866.91
2022-08-02T01:57:19.092Z,100883.19
2022-08-02T01:59:48.219Z,100876.88
2022-08-02T02:02:16.570Z,100876.88
2022-08-02T02:04:45.308Z,100877.16
2022-08-02T02:07:15.640Z,100878.19
2022-08-02T02:09:49.280Z,100882.56
2022-08-02T02:12:19.427Z,100875.63
2022-08-02T02:14:51.931Z,100879.88
2022-08-02T02:17:53.101Z,100873.63
2022-08-02T02:20:11.071Z,100876.00
2022-08-02T02:22:38.587Z,100879.63
2022-08-02T02:25:07.734Z,100872.81
2022-08-02T02:27:40.770Z,100881.13
2022-08-02T02:30:14.318Z,100880.31
2022-08-02T02:32:42.368Z,100881.84
2022-08-02T02:35:11.634Z,100886.50
2022-08-02T02:37:39.706Z,100885.09
2022-08-02T02:40:09.208Z,100889.66
2022-08-02T02:42:37.278Z,100886.50
2022-08-02T02:45:10.990Z,100891.41
2022-08-02T02:47:41.867Z,100889.41
2022-08-02T02:50:10.520Z,100894.78
2022-08-02T02:52:38.495Z,100885.88
2022-08-02T02:55:08.004Z,100881.06
2022-08-02T02:57:37.100Z,100882.38
2022-08-02T03:00:06.855Z,100880.13
2022-08-02T03:02:34.872Z,100884.81
2022-08-02T03:05:04.132Z,100889.41
2022-08-02T03:07:33.652Z,100885.97
2022-08-02T03:10:01.243Z,100883.72
2022-08-02T03:12:32.245Z,100885.38
2022-08-02T03:15:01.503Z,100883.03
2022-08-02T03:17:38.900Z,100880.56
2022-08-02T03:20:11.613Z,100883.44
2022-08-02T03:22:39.166Z,100885.38
2022-08-02T03:25:07.970Z,100870.63
2022-08-02T03:27:35.696Z,100878.72
2022-08-02T03:30:03.275Z,100883.88
2022-08-02T03:32:30.787Z,100884.69
2022-08-02T03:34:58.371Z,100884.91
2022-08-02T03:37:27.903Z,100881.38
2022-08-02T03:39:55.738Z,100883.75
2022-08-02T03:42:23.913Z,100887.06
2022-08-02T03:44:51.860Z,100880.94
2022-08-02T03:47:20.149Z,100880.94
2022-08-02T03:49:47.824Z,100872.84
2022-08-02T03:52:15.646Z,100871.19
2022-08-02T03:54:45.243Z,100876.50
2022-08-02T03:57:13.606Z,100873.59
2022-08-02T03:59:42.828Z,100870.00
2022-08-02T04:02:11.039Z,100865.50
2022-08-02T04:04:39.063Z,100864.09
2022-08-02T04:07:07.593Z,100864.25
2022-08-02T04:09:35.443Z,100868.34
2022-08-02T04:12:04.886Z,100863.28
2022-08-02T04:14:36.247Z,100871.94
2022-08-02T04:17:08.320Z,100877.88
2022-08-02T04:19:39.709Z,100875.00
2022-08-02T04:22:09.288Z,100877.66
2022-08-02T04:24:40.401Z,100880.34
2022-08-02T04:27:49.278Z,100876.28
2022-08-02T04:29:58.135Z,100891.53
2022-08-02T04:32:25.721Z,100880.56
2022-08-02T04:35:18.176Z,100883.63
2022-08-02T04:38:08.311Z,100883.75
2022-08-02T04:40:29.173Z,100891.41
2022-08-02T04:42:58.060Z,100897.47
2022-08-02T04:45:26.277Z,100896.84
2022-08-02T04:48:02.299Z,100904.59
2022-08-02T04:50:31.765Z,100904.94
2022-08-02T04:52:59.363Z,100914.53
2022-08-02T04:55:28.930Z,100917.00
2022-08-02T04:57:58.576Z,100919.84
2022-08-02T05:00:26.937Z,100925.59
2022-08-02T05:02:55.702Z,100930.53
2022-08-02T05:05:23.287Z,100940.91
2022-08-02T05:07:50.856Z,100936.59
2022-08-02T05:10:18.550Z,100937.94
2022-08-02T05:12:46.106Z,100934.28
2022-08-02T05:15:17.980Z,100926.69
2022-08-02T05:17:47.723Z,100926.00
2022-08-02T05:20:16.284Z,100926.13
2022-08-02T05:22:43.930Z,100924.59
2022-08-02T05:25:11.778Z,100933.72
2022-08-02T05:27:39.404Z,100925.31
2022-08-02T05:30:08.403Z,100916.72
2022-08-02T05:32:44.152Z,100918.06
2022-08-02T05:35:11.671Z,100919.81
2022-08-02T05:37:39.302Z,100930.88
2022-08-02T05:40:12.728Z,100932.75
2022-08-02T05:42:41.173Z,100928.53
2022-08-02T05:45:09.456Z,100929.28
2022-08-02T05:47:38.560Z,100930.22
2022-08-02T05:50:07.992Z,100937.16
2022-08-02T05:52:45.084Z,100931.41
2022-08-02T05:55:18.827Z,100936.44
2022-08-02T05:57:54.018Z,100935.16
2022-08-02T06:00:22.919Z,100939.38
2022-08-02T06:03:05.946Z,100950.66
2022-08-02T06:05:35.877Z,100943.34
2022-08-02T06:08:04.423Z,100941.09
2022-08-02T06:10:36.477Z,100939.81
2022-08-02T06:13:09.085Z,100933.34
2022-08-02T06:15:39.007Z,100941.91
2022-08-02T06:18:28.559Z,100946.31
2022-08-02T06:20:57.807Z,100944.38
2022-08-02T06:23:27.121Z,100948.53
2022-08-02T06:25:58.828Z,100950.56
2022-08-02T06:28:27.711Z,100951.38
2022-08-02T06:30:55.679Z,100944.66
2022-08-02T06:33:24.792Z,100940.41
2022-08-02T06:35:57.718Z,100950.28
2022-08-02T06:38:30.580Z,100935.59
2022-08-02T06:41:02.841Z,100944.47
2022-08-02T06:43:35.215Z,100945.31
2022-08-02T06:46:57.432Z,100943.88
2022-08-02T06:48:56.018Z,100949.41
2022-08-02T06:51:24.156Z,100942.19
2022-08-02T06:53:51.827Z,100946.97
2022-08-02T06:56:19.725Z,100940.63
2022-08-02T06:58:47.243Z,100938.38
2022-08-02T07:01:14.794Z,100946.41
2022-08-02T07:03:42.551Z,100943.56
2022-08-02T07:06:11.921Z,100941.47
2022-08-02T07:08:39.913Z,100938.88
2022-08-02T07:11:08.083Z,100937.19
2022-08-02T07:13:39.701Z,100929.81
2022-08-02T07:16:08.355Z,100935.91
2022-08-02T07:18:36.470Z,100936.25
2022-08-02T07:21:05.328Z,100937.25
2022-08-02T07:23:34.805Z,100934.22
2022-08-02T07:26:05.346Z,100933.56
2022-08-02T07:28:33.425Z,100925.91
2022-08-02T07:31:01.062Z,100924.94
2022-08-02T07:33:38.105Z,100921.66
2022-08-02T07:36:08.822Z,100918.00
2022-08-02T07:38:38.493Z,100926.25
2022-08-02T07:41:08.525Z,100925.44
2022-08-02T07:43:36.146Z,100919.81
2022-08-02T07:46:03.664Z,100928.16
2022-08-02T07:48:31.137Z,100920.00
2022-08-02T07:50:58.619Z,100914.03
2022-08-02T07:53:50.084Z,100911.25
2022-08-02T07:56:14.876Z,100925.91
2022-08-02T07:58:42.668Z,100924.34
2022-08-02T08:01:10.278Z,100920.97
2022-08-02T08:03:37.835Z,100916.59
2022-08-02T08:06:05.472Z,100913.38
2022-08-02T08:08:32.971Z,100920.56
2022-08-02T08:11:01.552Z,100916.84
2022-08-02T08:13:30.508Z,100911.97
2022-08-02T08:15:57.965Z,100909.31
2022-08-02T08:18:25.426Z,100911.25
2022-08-02T08:20:52.868Z,100910.44
2022-08-02T08:23:20.341Z,100914.81
2022-08-02T08:25:48.347Z,100908.88
2022-08-02T08:28:15.817Z,100914.34
2022-08-02T08:30:44.612Z,100913.91
2022-08-02T08:33:12.064Z,100910.91
2022-08-02T08:35:39.835Z,100907.97
2022-08-02T08:38:08.016Z,100914.09
2022-08-02T08:40:36.951Z,100919.00
2022-08-02T08:43:04.452Z,100929.13
2022-08-02T08:45:31.925Z,100925.59
2022-08-02T08:48:08.187Z,100915.75
2022-08-02T08:50:36.810Z,100916.31
2022-08-02T08:53:06.469Z,100917.69
2022-08-02T08:55:35.626Z,100921.16
2022-08-02T08:58:04.633Z,100911.94
2022-08-02T09:00:33.805Z,100904.91
2022-08-02T09:03:04.732Z,100903.50
2022-08-02T09:05:32.365Z,100900.00
2022-08-02T09:07:59.818Z,100907.13
2022-08-02T09:10:38.942Z,100903.88
2022-08-02T09:13:38.473Z,100905.56
2022-08-02T09:16:00.941Z,100897.66
2022-08-02T09:18:44.444Z,100896.09
2022-08-02T09:21:13.134Z,100892.00
2022-08-02T09:23:41.985Z,100896.38
2022-08-02T09:26:10.864Z,100896.38
2022-08-02T09:28:39.727Z,100898.31
2022-08-02T09:31:11.333Z,100909.44
2022-08-02T09:33:39.870Z,100896.94
2022-08-02T09:36:12.210Z,100904.28
2022-08-02T09:38:40.545Z,100900.19
2022-08-02T09:41:21.287Z,100893.91
2022-08-02T09:44:03.263Z,100891.47
2022-08-02T09:46:37.263Z,100901.03
2022-08-02T09:49:06.202Z,100885.50
2022-08-02T09:51:36.847Z,100895.84
2022-08-02T09:54:08.795Z,100885.19
2022-08-02T09:56:47.366Z,100884.91
2022-08-02T09:59:15.541Z,100878.84
2022-08-02T10:01:50.559Z,100876.38
2022-08-02T10:04:24.509Z,100874.47
2022-08-02T10:06:54.997Z,100877.16
2022-08-02T10:09:22.999Z,100880.19
2022-08-02T10:11:50.697Z,100872.75
2022-08-02T10:14:20.482Z,100867.31
2022-08-02T10:16:47.998Z,100870.28
2022-08-02T10:19:15.730Z,100864.19
2022-08-02T10:21:46.919Z,100860.00
2022-08-02T10:24:17.808Z,100857.78
2022-08-02T10:26:46.444Z,100861.31
2022-08-02T10:29:17.627Z,100847.09
2022-08-02T10:31:48.660Z,100853.59
2022-08-02T10:34:24.416Z,100850.56
2022-08-02T10:37:02.831Z,100862.28
2022-08-02T10:39:39.442Z,100853.31
2022-08-02T10:42:07.209Z,100854.00
2022-08-02T10:44:35.816Z,100853.13
2022-08-02T10:47:23.981Z,100853.97
2022-08-02T10:49:53.745Z,100853.13
2022-08-02T10:52:22.385Z,100852.06
2022-08-02T10:54:56.431Z,100841.88
2022-08-02T10:57:25.719Z,100834.75
2022-08-02T10:59:55.998Z,100838.19
2022-08-02T11:02:38.925Z,100838.59
2022-08-02T11:05:11.854Z,100828.09
2022-08-02T11:07:41.281Z,100837.59
2022-08-02T11:10:36.619Z,100830.34
2022-08-02T11:13:08.198Z,100824.78
2022-08-02T11:15:53.917Z,100821.72
2022-08-02T11:18:22.561Z,100816.88
2022-08-02T11:21:24.657Z,100814.09
2022-08-02T11:23:52.684Z,100825.22
2022-08-02T11:26:46.658Z,100807.50
2022-08-02T11:29:15.819Z,100813.22
2022-08-02T11:31:44.892Z,100814.94
2022-08-02T11:34:36.953Z,100807.84
2022-08-02T11:37:00.256Z,100810.06
2022-08-02T11:39:27.964Z,100806.72
2022-08-02T11:41:58.766Z,100810.88
2022-08-02T11:44:27.195Z,100814.34
2022-08-02T11:46:56.054Z,100813.81
2022-08-02T11:49:23.645Z,100813.81
2022-08-02T11:51:57.471Z,100812.94
2022-08-02T11:54:26.698Z,100810.28
2022-08-02T11:56:54.630Z,100808.13
2022-08-02T11:59:23.537Z,100812.59
2022-08-02T12:01:51.185Z,100806.34
2022-08-02T12:04:22.965Z,100811.59
2022-08-02T12:06:59.158Z,100803.03
2022-08-02T12:09:27.990Z,100798.88
2022-08-02T12:11:56.968Z,100804.88
2022-08-02T12:14:28.687Z,100800.03
2022-08-02T12:17:14.134Z,100799.03
2022-08-02T12:19:43.234Z,100797.09
2022-08-02T12:22:13.997Z,100786.50
2022-08-02T12:24:43.659Z,100788.13
2022-08-02T12:27:11.883Z,100797.41
2022-08-02T12:29:58.045Z,100793.66
2022-08-02T12:32:27.071Z,100797.69
2022-08-02T12:35:07.458Z,100793.44
2022-08-02T12:37:35.548Z,100799.16
2022-08-02T12:40:25.399Z,100786.84
2022-08-02T12:42:55.204Z,100781.22
2022-08-02T12:45:24.376Z,100785.00
2022-08-02T12:47:54.929Z,100789.41
2022-08-02T12:50:25.722Z,100780.19
2022-08-02T12:53:04.058Z,100770.22
2022-08-02T12:56:00.863Z,100777.16
2022-08-02T12:58:20.170Z,100764.22
2022-08-02T13:00:55.506Z,100751.59
2022-08-02T13:04:11.008Z,100757.31
2022-08-02T13:06:41.306Z,100755.50
2022-08-02T13:08:59.496Z,100761.78
2022-08-02T13:11:27.992Z,100761.59
2022-08-02T13:13:55.715Z,100753.25
2022-08-02T13:16:31.075Z,100754.22
2022-08-02T13:18:59.201Z,100760.44
2022-08-02T13:21:40.878Z,100763.53
2022-08-02T13:24:33.096Z,100746.81
2022-08-02T13:27:04.658Z,100743.91
2022-08-02T13:29:35.519Z,100751.53
2022-08-02T13:32:04.547Z,100744.91
2022-08-02T13:34:32.016Z,100746.22
2022-08-02T13:36:59.527Z,100739.25
2022-08-02T13:39:27.063Z,100743.69
2022-08-02T13:41:55.092Z,100739.03
2022-08-02T13:44:22.956Z,100726.72
2022-08-02T13:46:50.470Z,100726.63
2022-08-02T13:49:21.583Z,100725.50
2022-08-02T13:51:49.923Z,100723.47
2022-08-02T13:54:17.746Z,100711.38
2022-08-02T13:56:45.358Z,100706.88
2022-08-02T13:59:55.197Z,100702.22
2022-08-02T14:02:00.679Z,100695.69
2022-08-02T14:04:30.676Z,100699.19
2022-08-02T14:06:59.208Z,100702.72
2022-08-02T14:09:27.372Z,100705.63
2022-08-02T14:11:55.017Z,100701.25
2022-08-02T14:14:22.518Z,100699.56
2022-08-02T14:16:50.055Z,100705.63
2022-08-02T14:19:17.752Z,100699.28
2022-08-02T14:21:47.911Z,100685.81
2022-08-02T14:24:16.243Z,100682.13
2022-08-02T14:26:43.840Z,100678.44
2022-08-02T14:29:11.392Z,100675.09
2022-08-02T14:31:43.645Z,100673.66
2022-08-02T14:34:12.122Z,100679.34
2022-08-02T14:36:42.833Z,100675.78
2022-08-02T14:39:12.202Z,100674.53
2022-08-02T14:42:00.037Z,100671.22
2022-08-02T14:44:27.242Z,100671.59
2022-08-02T14:46:54.870Z,100665.22
2022-08-02T14:49:25.872Z,100672.75
2022-08-02T14:51:54.793Z,100659.91
2022-08-02T14:54:27.957Z,100675.44
2022-08-02T14:56:58.420Z,100660.44
2022-08-02T14:59:26.060Z,100660.81
2022-08-02T15:01:54.143Z,100669.06
2022-08-02T15:04:21.828Z,100666.28
2022-08-02T15:06:49.523Z,100660.84
2022-08-02T15:09:17.132Z,100656.84
2022-08-02T15:11:47.540Z,100651.59
2022-08-02T15:14:16.749Z,100651.00
2022-08-02T15:16:56.138Z,100647.69
2022-08-02T15:19:38.529Z,100639.59
2022-08-02T15:22:16.274Z,100647.00
2022-08-02T15:24:45.421Z,100639.06
2022-08-02T15:27:29.249Z,100633.34
2022-08-02T15:30:00.444Z,100633.63
2022-08-02T15:32:28.623Z,100631.41
2022-08-02T15:34:56.401Z,100621.38
2022-08-02T15:37:24.158Z,100629.88
2022-08-02T15:39:53.156Z,100633.09
2022-08-02T15:42:21.107Z,100636.31
2022-08-02T15:45:00.673Z,100635.19
2022-08-02T15:47:30.902Z,100630.31
2022-08-02T15:49:58.796Z,100631.34
2022-08-02T15:52:26.638Z,100622.44
2022-08-02T15:54:54.310Z,100624.16
2022-08-02T15:57:21.918Z,100625.44
2022-08-02T15:59:49.467Z,100624.84
2022-08-02T16:02:19.036Z,100617.28
2022-08-02T16:04:46.873Z,100628.59
2022-08-02T16:07:14.568Z,100622.06
2022-08-02T16:09:42.323Z,100622.56
2022-08-02T16:12:10.791Z,100627.16
2022-08-02T16:14:38.584Z,100614.31
2022-08-02T16:17:06.192Z,100612.28
2022-08-02T16:19:49.060Z,100609.91
2022-08-02T16:22:17.474Z,100602.75
2022-08-02T16:24:45.027Z,100608.66
2022-08-02T16:27:12.681Z,100603.78
2022-08-02T16:29:40.403Z,100606.69
2022-08-02T16:32:08.072Z,100608.78
2022-08-02T16:35:04.076Z,100613.44
2022-08-02T16:37:24.603Z,100608.19
2022-08-02T16:39:53.702Z,100611.16
2022-08-02T16:42:25.634Z,100606.22
2022-08-02T16:44:53.843Z,100612.25
2022-08-02T16:47:36.962Z,100601.16
2022-08-02T16:50:12.090Z,100598.94
2022-08-02T16:52:41.883Z,100597.00
2022-08-02T16:55:11.220Z,100595.88
2022-08-02T16:57:43.459Z,100587.97
2022-08-02T17:00:15.391Z,100590.97
2022-08-02T17:02:43.264Z,100586.81
2022-08-02T17:05:14.501Z,100595.25
2022-08-02T17:08:08.500Z,100590.06
2022-08-02T17:10:30.486Z,100590.47
2022-08-02T17:12:58.400Z,100584.63
2022-08-02T17:16:16.288Z,100588.16
2022-08-02T17:18:30.212Z,100589.63
2022-08-02T17:20:59.184Z,100589.25
2022-08-02T17:23:47.152Z,100597.25
2022-08-02T17:26:14.587Z,100587.44
2022-08-02T17:29:15.430Z,100598.06
2022-08-02T17:31:37.302Z,100591.31
2022-08-02T17:34:11.285Z,100593.34
2022-08-02T17:36:40.132Z,100590.66
2022-08-02T17:39:07.741Z,100589.41
2022-08-02T17:41:37.696Z,100594.41
2022-08-02T17:44:08.594Z,100589.53
2022-08-02T17:46:37.210Z,100587.84
2022-08-02T17:49:23.811Z,100589.13
2022-08-02T17:52:49.343Z,100577.69
2022-08-02T17:54:40.624Z,100587.28
2022-08-02T17:57:11.634Z,100588.66
2022-08-02T17:59:42.490Z,100584.63
2022-08-02T18:02:11.008Z,100590.53
2022-08-02T18:04:38.942Z,100593.50
2022-08-02T18:07:09.800Z,100596.97
2022-08-02T18:09:39.559Z,100596.97
2022-08-02T18:12:25.339Z,100597.31
2022-08-02T18:14:55.158Z,100590.03
2022-08-02T18:17:23.140Z,100591.88
2022-08-02T18:19:57.194Z,100587.19
2022-08-02T18:22:28.175Z,100592.38
2022-08-02T18:24:55.633Z,100590.16
2022-08-02T18:27:23.121Z,100590.38
2022-08-02T18:30:00.355Z,100594.84
2022-08-02T18:33:56.016Z,100587.91
2022-08-02T18:35:20.141Z,100591.41
2022-08-02T18:37:56.774Z,100590.41
2022-08-02T18:40:25.158Z,100593.00
2022-08-02T18:42:53.950Z,100595.00
2022-08-02T18:45:22.381Z,100596.81
2022-08-02T18:47:51.315Z,100603.09
2022-08-02T18:50:19.671Z,100602.38
2022-08-02T18:52:48.819Z,100603.75
2022-08-02T18:55:17.429Z,100604.75
2022-08-02T18:58:18.074Z,100602.13
2022-08-02T19:00:51.779Z,100600.00
2022-08-02T19:03:19.735Z,100601.78
2022-08-02T19:05:52.229Z,100601.63
2022-08-02T19:08:26.188Z,100605.00
2022-08-02T19:10:55.213Z,100599.59
2022-08-02T19:13:24.160Z,100598.97
2022-08-02T19:15:52.297Z,100596.59
2022-08-02T19:18:19.899Z,100602.72
2022-08-02T19:20:58.288Z,100599.63
2022-08-02T19:23:31.909Z,100609.00
2022-08-02T19:25:59.556Z,100600.13
2022-08-02T19:28:27.810Z,100607.97
2022-08-02T19:30:55.733Z,100603.94
2022-08-02T19:33:54.729Z,100609.09
2022-08-02T19:36:11.854Z,100607.09
2022-08-02T19:38:45.551Z,100601.94
2022-08-02T19:41:17.039Z,100612.72
2022-08-02T19:44:25.925Z,100610.94
2022-08-02T19:46:37.309Z,100614.88
2022-08-02T19:49:19.807Z,100619.78
2022-08-02T19:51:56.713Z,100618.47
2022-08-02T19:54:54.395Z,100615.50
2022-08-02T19:57:17.033Z,100619.34
2022-08-02T19:59:47.226Z,100618.84
2022-08-02T20:02:15.716Z,100624.91
2022-08-02T20:04:49.915Z,100620.56
2022-08-02T20:07:54.356Z,100617.88
2022-08-02T20:10:11.442Z,100625.53
2022-08-02T20:12:39.803Z,100628.56
2022-08-02T20:15:14.761Z,100626.09
2022-08-02T20:17:47.525Z,100623.94
2022-08-02T20:20:16.113Z,100622.31
2022-08-02T20:22:57.634Z,100618.22
2022-08-02T20:25:29.125Z,100626.66
2022-08-02T20:27:56.860Z,100614.19
2022-08-02T20:30:25.345Z,100615.25
2022-08-02T20:32:58.842Z,100609.28
2022-08-02T20:35:30.231Z,100612.25
2022-08-02T20:38:04.886Z,100614.94
2022-08-02T20:40:34.556Z,100617.16
2022-08-02T20:43:02.411Z,100623.41
2022-08-02T20:45:30.133Z,100623.13
2022-08-02T20:48:01.256Z,100618.47
2022-08-02T20:50:49.219Z,100629.34
2022-08-02T20:53:23.314Z,100626.31
2022-08-02T20:55:55.591Z,100628.22
2022-08-02T20:58:27.278Z,100625.75
2022-08-02T21:00:58.832Z,100628.78
2022-08-02T21:03:39.411Z,100625.50
2022-08-02T21:06:09.696Z,100633.09
2022-08-02T21:08:38.359Z,100643.91
2022-08-02T21:14:08.544Z,100648.78
2022-08-02T21:16:36.777Z,100651.47
2022-08-02T21:19:07.950Z,100642.75
2022-08-02T21:21:37.300Z,100645.97
2022-08-02T21:24:05.658Z,100651.38
2022-08-02T21:26:34.504Z,100648.56
2022-08-02T21:29:03.785Z,100646.59
2022-08-02T21:31:35.880Z,100641.19
2022-08-02T21:34:19.228Z,100643.63
2022-08-02T21:36:50.599Z,100642.78
2022-08-02T21:39:18.483Z,100643.06
2022-08-02T21:41:47.485Z,100639.44
2022-08-02T21:44:16.386Z,100637.78
2022-08-02T21:46:45.421Z,100635.03
2022-08-02T21:49:13.433Z,100644.38
2022-08-02T21:51:42.787Z,100649.09
2022-08-02T21:54:17.541Z,100634.88
2022-08-02T21:56:48.425Z,100638.19
2022-08-02T21:59:17.066Z,100642.41
2022-08-02T22:01:53.024Z,100645.22
2022-08-02T22:04:21.845Z,100644.84
2022-08-02T22:06:49.576Z,100645.88
2022-08-02T22:09:42.193Z,100647.75
2022-08-02T22:12:09.834Z,100646.63
2022-08-02T22:14:39.634Z,100644.69
2022-08-02T22:17:08.540Z,100653.28
2022-08-02T22:19:36.986Z,100656.94
2022-08-02T22:22:04.720Z,100653.81
2022-08-02T22:24:32.244Z,100660.94
2022-08-02T22:26:59.770Z,100664.66
2022-08-02T22:29:31.342Z,100658.91
2022-08-02T22:31:58.833Z,100662.66
2022-08-02T22:34:37.005Z,100666.75
2022-08-02T22:38:16.413Z,100664.28
2022-08-02T22:40:08.685Z,100669.31
2022-08-02T22:42:40.147Z,100674.72
2022-08-02T22:45:10.815Z,100669.44
2022-08-02T22:47:51.160Z,100674.13
2022-08-02T22:50:19.398Z,100670.03
2022-08-02T22:52:56.614Z,100667.31
2022-08-02T22:55:52.300Z,100662.91
2022-08-02T22:58:51.032Z,100669.31
2022-08-02T22:59:02.071Z,100641.69
2022-08-02T23:01:31.928Z,100664.41
2022-08-02T23:04:06.408Z,100668.19
2022-08-02T23:06:55.185Z,100667.34
2022-08-02T23:09:31.496Z,100671.31
2022-08-02T23:12:17.724Z,100666.81
2022-08-02T23:14:45.849Z,100659.06
2022-08-02T23:17:39.564Z,100664.06
2022-08-02T23:20:10.764Z,100668.06
2022-08-02T23:22:39.119Z,100666.28
2022-08-02T23:25:08.477Z,100661.44
2022-08-02T23:27:36.691Z,100663.16
2022-08-02T23:30:06.251Z,100665.31
2022-08-02T23:32:35.388Z,100663.63
2022-08-02T23:35:09.198Z,100662.00
2022-08-02T23:38:00.086Z,100661.13
2022-08-02T23:40:39.790Z,100673.94
2022-08-02T23:43:14.112Z,100676.06
2022-08-02T23:45:43.810Z,100686.22
2022-08-02T23:48:12.631Z,100685.03
2022-08-02T23:50:40.427Z,100683.03
2022-08-02T23:53:07.963Z,100673.22
2022-08-02T23:55:35.431Z,100676.56
2022-08-02T23:58:02.965Z,100672.97
